createdAt,value
2017-11-21T00:02:23.200Z,8.37
2017-11-21T00:04:50.771Z,9.10
2017-11-21T00:07:19.113Z,10.60
2017-11-21T00:09:46.709Z,10.40
2017-11-21T00:12:15.060Z,10.10
2017-11-21T00:14:42.657Z,11.03
2017-11-21T00:17:11.022Z,12.10
2017-11-21T00:19:38.638Z,12.93
2017-11-21T00:22:06.231Z,11.83
2017-11-21T00:24:33.798Z,14.00
2017-11-21T00:27:01.414Z,13.17
2017-11-21T00:29:29.008Z,13.60
2017-11-21T00:31:56.590Z,14.20
2017-11-21T00:34:24.138Z,14.67
2017-11-21T00:36:51.728Z,13.87
2017-11-21T00:39:20.111Z,13.50
2017-11-21T00:41:48.472Z,13.07
2017-11-21T00:44:16.030Z,11.07
2017-11-21T00:46:43.615Z,10.40
2017-11-21T00:49:12.004Z,10.20
2017-11-21T00:51:39.562Z,9.47
2017-11-21T00:54:07.162Z,9.50
2017-11-21T00:56:34.751Z,9.77
2017-11-21T00:59:02.352Z,9.20
2017-11-21T01:01:29.933Z,8.70
2017-11-21T01:03:57.496Z,8.47
2017-11-21T01:06:25.092Z,9.53
2017-11-21T01:08:52.670Z,9.57
2017-11-21T01:11:21.047Z,9.80
2017-11-21T01:13:48.647Z,10.20
2017-11-21T01:16:16.231Z,10.70
2017-11-21T01:18:43.831Z,10.90
2017-11-21T01:21:11.537Z,11.20
2017-11-21T01:23:39.127Z,10.33
2017-11-21T01:26:06.708Z,10.60
2017-11-21T01:28:34.262Z,8.50
2017-11-21T01:31:02.122Z,10.20
2017-11-21T01:33:29.685Z,8.00
2017-11-21T01:35:57.284Z,8.97
2017-11-21T01:38:25.072Z,8.40
2017-11-21T01:40:52.665Z,8.60
2017-11-21T01:43:20.240Z,10.87
2017-11-21T01:45:47.812Z,10.23
2017-11-21T01:48:15.412Z,10.73
2017-11-21T01:50:42.981Z,10.73
2017-11-21T01:53:10.568Z,10.60
2017-11-21T01:55:38.168Z,11.20
2017-11-21T01:58:05.752Z,14.73
2017-11-21T02:00:33.327Z,13.23
2017-11-21T02:03:04.935Z,15.80
2017-11-21T02:05:33.262Z,16.20
2017-11-21T02:08:00.838Z,18.20
2017-11-21T02:10:28.432Z,18.43
2017-11-21T02:12:56.003Z,17.70
2017-11-21T02:15:24.367Z,18.93
2017-11-21T02:17:51.931Z,17.80
2017-11-21T02:20:19.516Z,15.37
2017-11-21T02:22:47.958Z,15.67
2017-11-21T02:25:15.534Z,15.30
2017-11-21T02:27:43.104Z,15.67
2017-11-21T02:30:11.461Z,15.17
2017-11-21T02:32:39.090Z,16.73
2017-11-21T02:35:06.682Z,16.57
2017-11-21T02:37:34.256Z,17.00
2017-11-21T02:40:01.861Z,17.23
2017-11-21T02:42:29.431Z,18.33
2017-11-21T02:44:56.988Z,18.43
2017-11-21T02:47:24.654Z,18.80
2017-11-21T02:49:52.225Z,17.83
2017-11-21T02:52:20.537Z,17.43
2017-11-21T02:54:48.108Z,17.63
2017-11-21T02:57:16.424Z,18.67
2017-11-21T02:59:44.012Z,20.03
2017-11-21T03:02:12.055Z,19.33
2017-11-21T03:04:39.634Z,18.90
2017-11-21T03:07:07.203Z,17.07
2017-11-21T03:09:34.814Z,18.70
2017-11-21T03:12:03.140Z,18.73
2017-11-21T03:14:30.700Z,17.43
2017-11-21T03:16:58.283Z,17.27
2017-11-21T03:19:25.883Z,13.90
2017-11-21T03:22:05.358Z,13.93
2017-11-21T03:24:44.708Z,12.50
2017-11-21T03:27:15.974Z,11.90
2017-11-21T03:29:43.564Z,11.73
2017-11-21T03:32:11.894Z,11.93
2017-11-21T03:34:39.497Z,11.37
2017-11-21T03:37:07.962Z,10.13
2017-11-21T03:39:36.007Z,9.80
2017-11-21T03:42:03.560Z,10.50
2017-11-21T03:44:31.176Z,10.67
2017-11-21T03:46:59.495Z,11.03
2017-11-21T03:49:27.149Z,9.83
2017-11-21T03:51:54.707Z,9.50
2017-11-21T03:54:22.310Z,9.60
2017-11-21T03:56:50.044Z,8.77
2017-11-21T03:59:18.360Z,8.60
2017-11-21T04:01:45.917Z,10.83
2017-11-21T04:04:13.535Z,11.00
2017-11-21T04:06:41.891Z,12.60
2017-11-21T04:09:09.478Z,11.80
2017-11-21T04:11:37.055Z,13.67
2017-11-21T04:14:04.646Z,14.10
2017-11-21T04:16:32.232Z,17.53
2017-11-21T04:19:00.547Z,17.07
2017-11-21T04:21:28.123Z,15.60
2017-11-21T04:23:55.800Z,17.73
2017-11-21T04:26:23.382Z,18.53
2017-11-21T04:28:51.728Z,18.70
2017-11-21T04:31:19.362Z,19.10
2017-11-21T04:33:46.939Z,18.93
2017-11-21T04:36:14.526Z,18.90
2017-11-21T04:38:42.111Z,20.00
2017-11-21T04:41:10.472Z,19.47
2017-11-21T04:43:38.332Z,20.20
2017-11-21T04:46:05.916Z,23.33
2017-11-21T04:48:34.597Z,21.73
2017-11-21T04:51:02.185Z,23.70
2017-11-21T04:53:29.850Z,22.53
2017-11-21T04:55:57.430Z,22.10
2017-11-21T04:58:25.021Z,23.37
2017-11-21T05:00:52.584Z,23.67
2017-11-21T05:03:20.183Z,22.47
2017-11-21T05:05:48.511Z,22.73
2017-11-21T05:08:16.153Z,23.03
2017-11-21T05:10:43.770Z,21.10
2017-11-21T05:13:12.328Z,21.50
2017-11-21T05:15:39.887Z,20.70
2017-11-21T05:18:07.490Z,19.87
2017-11-21T05:20:35.849Z,17.30
2017-11-21T05:23:03.418Z,12.97
2017-11-21T05:25:32.637Z,13.63
2017-11-21T05:28:00.215Z,12.50
2017-11-21T05:30:27.803Z,11.17
2017-11-21T05:33:07.266Z,9.83
2017-11-21T05:35:34.876Z,8.47
2017-11-21T05:38:02.467Z,8.80
2017-11-21T05:40:30.039Z,6.83
2017-11-21T05:42:57.632Z,7.27
2017-11-21T05:45:26.026Z,7.37
2017-11-21T05:47:53.904Z,5.80
2017-11-21T05:50:21.476Z,6.37
2017-11-21T05:52:49.063Z,6.00
2017-11-21T05:55:16.711Z,7.70
2017-11-21T05:57:44.307Z,5.67
2017-11-21T06:00:12.717Z,6.40
2017-11-21T06:02:41.095Z,6.50
2017-11-21T06:05:08.675Z,6.77
2017-11-21T06:07:36.372Z,7.63
2017-11-21T06:10:03.981Z,7.67
2017-11-21T06:12:32.322Z,8.90
2017-11-21T06:15:00.068Z,9.13
2017-11-21T06:17:27.643Z,9.83
2017-11-21T06:19:55.253Z,10.90
2017-11-21T06:22:22.838Z,11.37
2017-11-21T06:24:50.433Z,12.77
2017-11-21T06:27:18.047Z,12.67
2017-11-21T06:29:45.635Z,13.00
2017-11-21T06:32:13.265Z,13.17
2017-11-21T06:34:40.828Z,13.13
2017-11-21T06:37:08.427Z,13.10
2017-11-21T06:39:35.986Z,14.67
2017-11-21T06:42:03.643Z,14.53
2017-11-21T06:44:31.202Z,14.10
2017-11-21T06:46:59.044Z,16.80
2017-11-21T06:49:26.623Z,16.83
2017-11-21T06:51:54.221Z,20.47
2017-11-21T06:54:22.571Z,18.50
2017-11-21T06:56:50.186Z,18.43
2017-11-21T06:59:18.563Z,18.93
2017-11-21T07:01:46.922Z,16.83
2017-11-21T07:04:14.507Z,18.33
2017-11-21T07:06:42.106Z,19.20
2017-11-21T07:09:09.696Z,19.30
2017-11-21T07:11:37.256Z,17.97
2017-11-21T07:14:04.835Z,18.30
2017-11-21T07:16:33.193Z,19.30
2017-11-21T07:19:00.855Z,17.17
2017-11-21T07:21:28.430Z,18.83
2017-11-21T07:23:56.780Z,17.13
2017-11-21T07:26:24.406Z,15.57
2017-11-21T07:28:57.877Z,21.43
2017-11-21T07:31:26.230Z,17.27
2017-11-21T07:33:53.806Z,15.40
2017-11-21T07:36:21.388Z,16.10
2017-11-21T07:38:49.767Z,15.27
2017-11-21T07:41:18.160Z,16.17
2017-11-21T07:43:45.756Z,14.90
2017-11-21T07:46:13.383Z,15.73
2017-11-21T07:48:40.972Z,16.63
2017-11-21T07:51:08.610Z,15.13
2017-11-21T07:53:36.198Z,14.87
2017-11-21T07:56:03.789Z,14.13
2017-11-21T07:58:31.479Z,13.97
2017-11-21T08:00:59.927Z,14.33
2017-11-21T08:03:27.481Z,14.17
2017-11-21T08:05:55.073Z,14.13
2017-11-21T08:08:22.682Z,14.53
2017-11-21T08:10:50.296Z,13.37
2017-11-21T08:13:18.667Z,14.37
2017-11-21T08:15:46.283Z,14.27
2017-11-21T08:18:13.906Z,15.37
2017-11-21T08:20:42.255Z,12.03
2017-11-21T08:23:09.853Z,12.73
2017-11-21T08:25:38.224Z,11.30
2017-11-21T08:28:06.648Z,14.97
2017-11-21T08:30:34.235Z,12.63
2017-11-21T08:33:01.803Z,12.00
2017-11-21T08:35:29.449Z,12.37
2017-11-21T08:37:57.038Z,11.53
2017-11-21T08:40:24.847Z,11.13
2017-11-21T08:42:52.436Z,11.00
2017-11-21T08:45:20.023Z,10.83
2017-11-21T08:47:47.609Z,11.70
2017-11-21T08:50:16.050Z,11.20
2017-11-21T08:52:43.683Z,10.90
2017-11-21T08:55:11.287Z,10.00
2017-11-21T08:57:38.873Z,10.10
2017-11-21T09:00:07.235Z,10.17
2017-11-21T09:02:34.824Z,10.00
2017-11-21T09:05:02.413Z,10.10
2017-11-21T09:07:29.997Z,9.50
2017-11-21T09:09:57.581Z,9.10
2017-11-21T09:12:25.223Z,9.20
2017-11-21T09:14:58.742Z,10.30
2017-11-21T09:17:26.457Z,8.53
2017-11-21T09:19:54.048Z,7.77
2017-11-21T09:22:21.636Z,6.80
2017-11-21T09:24:50.149Z,5.47
2017-11-21T09:27:17.741Z,5.67
2017-11-21T09:29:45.309Z,5.17
2017-11-21T09:32:13.756Z,5.80
2017-11-21T09:34:41.324Z,4.43
2017-11-21T09:37:08.897Z,4.83
2017-11-21T09:39:36.498Z,4.70
2017-11-21T09:42:04.054Z,4.50
2017-11-21T09:44:31.632Z,4.97
2017-11-21T09:46:59.971Z,4.30
2017-11-21T09:49:27.540Z,3.73
2017-11-21T09:51:55.112Z,3.43
2017-11-21T09:54:22.703Z,3.70
2017-11-21T09:57:06.951Z,3.70
2017-11-21T09:59:35.334Z,2.90
2017-11-21T10:02:02.896Z,3.30
2017-11-21T10:04:30.492Z,3.80
2017-11-21T10:06:58.100Z,2.90
2017-11-21T10:09:26.664Z,2.00
2017-11-21T10:11:54.244Z,2.10
2017-11-21T10:14:21.820Z,1.80
2017-11-21T10:16:50.172Z,2.17
2017-11-21T10:19:17.742Z,2.30
2017-11-21T10:21:45.335Z,1.90
2017-11-21T10:24:12.950Z,1.60
2017-11-21T10:26:40.534Z,2.27
2017-11-21T10:29:08.903Z,1.67
2017-11-21T10:31:36.473Z,2.33
2017-11-21T10:34:04.872Z,2.30
2017-11-21T10:36:32.443Z,2.30
2017-11-21T10:39:00.021Z,1.80
2017-11-21T10:41:27.968Z,1.87
2017-11-21T10:43:55.535Z,2.53
2017-11-21T10:46:23.122Z,2.97
2017-11-21T10:48:50.701Z,2.50
2017-11-21T10:51:18.298Z,2.50
2017-11-21T10:53:46.715Z,2.30
2017-11-21T10:56:14.355Z,2.20
2017-11-21T10:58:41.921Z,2.50
2017-11-21T11:01:09.536Z,2.50
2017-11-21T11:03:37.066Z,2.53
2017-11-21T11:06:04.653Z,3.33
2017-11-21T11:08:32.373Z,4.10
2017-11-21T11:11:00.102Z,2.50
2017-11-21T11:13:28.458Z,2.60
2017-11-21T11:15:56.006Z,2.70
2017-11-21T11:18:23.577Z,2.60
2017-11-21T11:20:51.153Z,2.43
2017-11-21T11:23:19.522Z,3.57
2017-11-21T11:25:47.114Z,2.60
2017-11-21T11:28:14.667Z,3.80
2017-11-21T11:30:43.007Z,2.63
2017-11-21T11:33:10.633Z,3.50
2017-11-21T11:35:38.256Z,3.00
2017-11-21T11:38:07.682Z,5.90
2017-11-21T11:40:36.179Z,3.70
2017-11-21T11:43:03.746Z,3.83
2017-11-21T11:45:31.368Z,4.10
2017-11-21T11:47:59.745Z,4.33
2017-11-21T11:50:27.339Z,5.13
2017-11-21T11:52:54.998Z,5.60
2017-11-21T11:55:22.555Z,6.53
2017-11-21T11:57:50.136Z,5.00
2017-11-21T12:00:17.713Z,6.30
2017-11-21T12:02:45.299Z,5.30
2017-11-21T12:05:12.893Z,5.97
2017-11-21T12:07:41.224Z,6.00
2017-11-21T12:10:08.775Z,6.17
2017-11-21T12:12:36.366Z,6.20
2017-11-21T12:15:03.932Z,5.93
2017-11-21T12:17:31.536Z,5.87
2017-11-21T12:19:59.182Z,5.63
2017-11-21T12:22:27.529Z,5.90
2017-11-21T12:24:55.106Z,6.10
2017-11-21T12:27:23.438Z,6.30
2017-11-21T12:29:51.019Z,6.30
2017-11-21T12:32:18.602Z,6.70
2017-11-21T12:34:46.940Z,6.40
2017-11-21T12:37:14.519Z,7.40
2017-11-21T12:39:42.132Z,6.70
2017-11-21T12:42:09.710Z,7.17
2017-11-21T12:44:37.344Z,7.70
2017-11-21T12:47:04.947Z,6.67
2017-11-21T12:49:32.540Z,6.10
2017-11-21T12:52:00.183Z,7.27
2017-11-21T12:54:27.873Z,7.83
2017-11-21T12:56:55.532Z,8.33
2017-11-21T12:59:23.080Z,7.90
2017-11-21T13:01:50.782Z,6.63
2017-11-21T13:04:19.148Z,6.50
2017-11-21T13:06:47.507Z,6.40
2017-11-21T13:09:15.043Z,6.60
2017-11-21T13:11:42.638Z,5.83
2017-11-21T13:14:12.299Z,6.10
2017-11-21T13:16:39.916Z,6.13
2017-11-21T13:19:08.240Z,5.60
2017-11-21T13:21:35.792Z,5.70
2017-11-21T13:24:03.344Z,4.83
2017-11-21T13:29:04.863Z,5.13
2017-11-21T13:31:32.523Z,4.43
2017-11-21T13:34:00.110Z,4.97
2017-11-21T13:36:27.660Z,5.47
2017-11-21T13:38:55.231Z,4.60
2017-11-21T13:44:01.485Z,10.73
2017-11-21T13:46:29.106Z,6.03
2017-11-21T13:48:56.725Z,5.73
2017-11-21T13:51:24.368Z,6.47
2017-11-21T13:53:56.672Z,5.50
2017-11-21T13:56:24.334Z,6.37
2017-11-21T13:59:02.399Z,9.13
2017-11-21T14:01:30.455Z,4.47
2017-11-21T14:03:58.155Z,6.43
2017-11-21T14:06:25.982Z,6.67
2017-11-21T14:08:53.568Z,5.30
2017-11-21T14:11:21.180Z,5.70
2017-11-21T14:13:49.516Z,5.60
2017-11-21T14:16:31.530Z,9.60
2017-11-21T14:19:00.403Z,5.30
2017-11-21T14:21:27.972Z,4.83
2017-11-21T14:23:55.584Z,6.03
2017-11-21T14:26:23.238Z,6.07
2017-11-21T14:28:50.866Z,6.80
2017-11-21T14:31:18.446Z,7.03
2017-11-21T14:33:46.022Z,6.17
2017-11-21T14:36:13.621Z,6.47
2017-11-21T14:38:41.249Z,6.80
2017-11-21T14:41:09.716Z,7.00
2017-11-21T14:43:38.081Z,7.80
2017-11-21T14:46:05.647Z,6.87
2017-11-21T14:48:33.999Z,6.70
2017-11-21T14:51:01.596Z,7.27
2017-11-21T14:53:33.593Z,7.13
2017-11-21T14:56:01.240Z,7.20
2017-11-21T14:58:28.848Z,8.13
2017-11-21T15:00:56.433Z,7.40
2017-11-21T15:03:24.050Z,7.10
2017-11-21T15:05:51.608Z,8.27
2017-11-21T15:08:19.214Z,7.17
2017-11-21T15:10:46.769Z,8.90
2017-11-21T15:13:14.398Z,6.33
2017-11-21T15:15:42.067Z,8.57
2017-11-21T15:18:09.670Z,10.27
2017-11-21T15:20:37.372Z,7.77
2017-11-21T15:23:05.715Z,8.40
2017-11-21T15:25:34.110Z,9.10
2017-11-21T15:28:02.469Z,9.60
2017-11-21T15:30:30.060Z,9.20
2017-11-21T15:32:57.648Z,12.93
2017-11-21T15:35:25.236Z,12.33
2017-11-21T15:37:52.832Z,10.70
2017-11-21T15:40:21.197Z,10.10
2017-11-21T15:42:49.550Z,11.20
2017-11-21T15:45:17.144Z,13.10
2017-11-21T15:47:45.523Z,11.23
2017-11-21T15:50:13.933Z,12.07
2017-11-21T15:52:41.524Z,12.80
2017-11-21T15:55:09.141Z,12.63
2017-11-21T15:57:36.760Z,11.97
2017-11-21T16:00:04.357Z,10.97
2017-11-21T16:02:32.728Z,11.20
2017-11-21T16:05:01.088Z,10.90
2017-11-21T16:07:28.762Z,11.70
2017-11-21T16:09:56.352Z,10.97
2017-11-21T16:12:24.006Z,13.47
2017-11-21T16:14:52.548Z,10.97
2017-11-21T16:17:20.255Z,11.23
2017-11-21T16:19:47.813Z,10.50
2017-11-21T16:22:16.159Z,12.50
2017-11-21T16:24:43.789Z,11.57
2017-11-21T16:27:11.476Z,13.03
2017-11-21T16:29:39.067Z,13.50
2017-11-21T16:32:06.792Z,14.33
2017-11-21T16:34:34.440Z,14.87
2017-11-21T16:37:02.051Z,14.63
2017-11-21T16:39:30.437Z,14.83
2017-11-21T16:41:58.833Z,16.43
2017-11-21T16:44:26.424Z,14.73
2017-11-21T16:46:54.030Z,13.60
2017-11-21T16:49:22.411Z,14.00
2017-11-21T16:51:50.115Z,13.57
2017-11-21T16:54:17.696Z,15.40
2017-11-21T16:56:45.800Z,16.40
2017-11-21T16:59:14.820Z,15.50
2017-11-21T17:01:43.227Z,14.60
2017-11-21T17:04:11.630Z,15.23
2017-11-21T17:06:39.248Z,14.53
2017-11-21T17:09:07.731Z,12.93
2017-11-21T17:11:36.063Z,13.63
2017-11-21T17:14:03.663Z,12.93
2017-11-21T17:19:05.937Z,14.63
2017-11-21T17:21:34.289Z,13.40
2017-11-21T17:24:01.876Z,15.20
2017-11-21T17:26:30.243Z,12.43
2017-11-21T17:28:58.018Z,12.97
2017-11-21T17:31:25.602Z,12.20
2017-11-21T17:33:53.225Z,12.90
2017-11-21T17:36:20.912Z,12.93
2017-11-21T17:38:49.302Z,12.53
2017-11-21T17:41:17.644Z,11.60
2017-11-21T17:43:45.237Z,12.77
2017-11-21T17:46:13.596Z,13.20
2017-11-21T17:48:41.165Z,13.53
2017-11-21T17:51:08.768Z,13.07
2017-11-21T17:53:36.370Z,14.27
2017-11-21T17:56:04.004Z,13.30
2017-11-21T17:58:31.686Z,13.00
2017-11-21T18:00:59.324Z,15.00
2017-11-21T18:03:27.110Z,14.10
2017-11-21T18:05:54.730Z,14.63
2017-11-21T18:08:22.356Z,14.73
2017-11-21T18:10:49.976Z,15.17
2017-11-21T18:13:17.584Z,14.60
2017-11-21T18:15:45.182Z,15.60
2017-11-21T18:18:13.084Z,17.27
2017-11-21T18:20:40.776Z,14.43
2017-11-21T18:23:08.439Z,15.33
2017-11-21T18:25:36.061Z,18.20
2017-11-21T18:28:03.672Z,18.37
2017-11-21T18:30:31.409Z,16.00
2017-11-21T18:33:01.963Z,16.70
2017-11-21T18:35:29.603Z,15.77
2017-11-21T18:37:57.984Z,17.00
2017-11-21T18:40:25.603Z,16.67
2017-11-21T18:42:53.301Z,15.37
2017-11-21T18:45:20.878Z,18.73
2017-11-21T18:47:48.557Z,17.63
2017-11-21T18:50:27.150Z,16.23
2017-11-21T18:55:30.336Z,18.80
2017-11-21T18:57:58.333Z,17.60
2017-11-21T19:00:26.215Z,15.03
2017-11-21T19:02:53.843Z,15.90
2017-11-21T19:05:21.436Z,17.60
2017-11-21T19:07:49.069Z,15.40
2017-11-21T19:10:17.517Z,14.20
2017-11-21T19:12:45.155Z,14.60
2017-11-21T19:15:12.788Z,15.43
2017-11-21T19:17:40.395Z,16.47
2017-11-21T19:20:08.763Z,17.20
2017-11-21T19:22:37.159Z,16.00
2017-11-21T19:25:05.539Z,17.30
2017-11-21T19:27:33.918Z,15.63
2017-11-21T19:30:02.354Z,17.00
2017-11-21T19:32:29.960Z,15.93
2017-11-21T19:35:02.833Z,16.60
2017-11-21T19:37:30.474Z,23.20
2017-11-21T19:39:58.107Z,15.13
2017-11-21T19:42:26.640Z,14.43
2017-11-21T19:44:55.101Z,14.13
2017-11-21T19:47:22.733Z,15.40
2017-11-21T19:49:51.101Z,14.80
2017-11-21T19:52:18.680Z,14.47
2017-11-21T19:54:46.271Z,16.57
2017-11-21T19:57:13.891Z,16.07
2017-11-21T19:59:41.501Z,15.53
2017-11-21T20:02:09.123Z,14.60
2017-11-21T20:04:36.803Z,14.50
2017-11-21T20:07:04.493Z,15.10
2017-11-21T20:09:32.836Z,15.67
2017-11-21T20:12:00.445Z,14.73
2017-11-21T20:14:28.811Z,17.03
2017-11-21T20:16:57.251Z,15.77
2017-11-21T20:19:24.941Z,15.80
2017-11-21T20:21:53.401Z,15.03
2017-11-21T20:24:20.988Z,14.87
2017-11-21T20:26:48.674Z,14.57
2017-11-21T20:29:17.020Z,13.93
2017-11-21T20:31:44.586Z,15.30
2017-11-21T20:34:12.211Z,13.67
2017-11-21T20:39:13.875Z,13.70
2017-11-21T20:41:41.478Z,13.90
2017-11-21T20:44:09.352Z,13.97
2017-11-21T20:46:36.919Z,12.33
2017-11-21T20:49:04.569Z,12.40
2017-11-21T20:51:32.364Z,14.00
2017-11-21T20:54:00.831Z,14.17
2017-11-21T20:56:29.272Z,12.30
2017-11-21T20:58:56.897Z,12.53
2017-11-21T21:01:24.519Z,12.30
2017-11-21T21:03:52.144Z,12.23
2017-11-21T21:06:19.711Z,13.10
2017-11-21T21:08:47.325Z,11.90
2017-11-21T21:11:14.961Z,12.03
2017-11-21T21:13:42.794Z,12.07
2017-11-21T21:16:10.522Z,11.50
2017-11-21T21:18:38.960Z,13.83
2017-11-21T21:21:06.656Z,14.73
2017-11-21T21:23:35.083Z,11.87
2017-11-21T21:26:02.860Z,13.17
2017-11-21T21:28:30.482Z,11.43
2017-11-21T21:30:58.901Z,13.00
2017-11-21T21:33:27.285Z,12.90
2017-11-21T21:35:55.275Z,13.67
2017-11-21T21:38:22.873Z,13.50
2017-11-21T21:40:51.269Z,13.70
2017-11-21T21:43:18.863Z,14.00
2017-11-21T21:45:46.466Z,13.97
2017-11-21T21:48:15.812Z,13.80
2017-11-21T21:50:43.642Z,13.77
2017-11-21T21:53:11.206Z,13.93
2017-11-21T21:55:39.567Z,12.90
2017-11-21T21:58:08.551Z,13.80
2017-11-21T22:00:36.175Z,13.17
2017-11-21T22:03:03.800Z,14.53
2017-11-21T22:05:32.159Z,13.73
2017-11-21T22:07:59.731Z,12.73
2017-11-21T22:10:27.322Z,13.33
2017-11-21T22:12:55.027Z,13.33
2017-11-21T22:15:22.629Z,13.00
2017-11-21T22:17:50.982Z,15.90
2017-11-21T22:20:18.578Z,12.80
2017-11-21T22:22:46.943Z,13.13
2017-11-21T22:25:15.524Z,13.00
2017-11-21T22:27:43.133Z,13.67
2017-11-21T22:30:10.720Z,13.10
2017-11-21T22:32:38.289Z,12.80
2017-11-21T22:35:06.670Z,14.07
2017-11-21T22:37:34.340Z,10.87
2017-11-21T22:40:01.931Z,12.07
2017-11-21T22:42:29.531Z,12.43
2017-11-21T22:44:57.130Z,12.03
2017-11-21T22:47:24.740Z,12.57
2017-11-21T22:49:53.108Z,11.57
2017-11-21T22:52:20.715Z,11.80
2017-11-21T22:54:48.349Z,10.60
2017-11-21T22:57:15.903Z,12.40
2017-11-21T22:59:43.528Z,11.40
2017-11-21T23:02:12.043Z,11.40
2017-11-21T23:04:39.715Z,11.60
2017-11-21T23:07:07.331Z,10.40
2017-11-21T23:09:35.652Z,11.23
2017-11-21T23:12:03.236Z,11.20
2017-11-21T23:14:30.856Z,11.23
2017-11-21T23:16:59.187Z,10.43
2017-11-21T23:19:26.827Z,11.63
2017-11-21T23:21:54.400Z,11.20
2017-11-21T23:24:22.023Z,11.37
2017-11-21T23:26:49.700Z,10.27
2017-11-21T23:29:17.324Z,10.73
2017-11-21T23:31:44.903Z,10.43
2017-11-21T23:34:12.455Z,9.40
2017-11-21T23:36:40.831Z,10.37
2017-11-21T23:39:09.174Z,9.60
2017-11-21T23:41:36.790Z,10.53
2017-11-21T23:44:04.465Z,9.87
2017-11-21T23:46:32.051Z,9.60
2017-11-21T23:48:59.614Z,10.10
2017-11-21T23:51:27.195Z,10.70
2017-11-21T23:53:54.762Z,12.27
2017-11-21T23:56:23.254Z,10.43
2017-11-21T23:58:50.863Z,11.13
